X  Zatvori METAR podaci zračne luke     EDDK Cologne Bonn Airport
Temperatura
20°C Temperatura
15°C Točka rosišta
73% Vlaga



Vjetar
9 M/S
20 MPS
32 KM/S
17 Čvorovi



310°
SZ
Trenutna situacija

Slaba Pljuskovi Kiša Slaba Pljuskovi Kiša
Tlak zraka 1016.93 (hPa) - 30.03 (inHg)
Vidljivost 6 (milje) - 9.7 (km)
Zračna luka
Kôd zračne luke EDDK

Lokacija: Cologne Bonn Airport
Udaljenost: 56 (km)

Metar:
EDDK 231820Z AUTO 31017KT 250V330 9999 -SHRA BKN036 BKN049 FEW///CB 20/15 Q1017 NOSIG

Vrijeme: 2024-07-23 20:20 CEST